Lammy — PBRE — position and weather

sailwx.info

Track history (hours):
 
Tides and Currents Weather Stations Pressure Air Temp Water Temp Dewpoint Dewpoint Depression Visibility Wind Speed Wind Dir Waves Ship Positions

Lammy

Last reported at 2015-May-05 18:33 UTC. Time now 2015-May-05 19:20 UTC.
Position N 53°45' W 000°17'.

Length 95 m; draft 5.1 m.

Type: Cargo ship. MMSI: 245391000.

Date/timePositionNaut miles runAvg speedWind from/ knotsBaromVisibWave heightAir tempDewpointWater temp
2015-May-05 18:33N 53°45' W 000°17'0 0.1
2015-May-05 17:33N 53°45' W 000°18'0 0.3
2015-May-05 16:34N 53°44' W 000°18'1 1.3
2015-May-05 15:34N 53°45' W 000°16'0 0.0
2015-May-05 14:33N 53°45' W 000°16'0 0.0
2015-May-05 13:33N 53°45' W 000°16'0 0.0
2015-May-05 12:33N 53°45' W 000°16'0 0.0
2015-May-05 11:33N 53°45' W 000°16'0 0.0
2015-May-05 10:33N 53°45' W 000°16'0 0.0
2015-May-05 09:33N 53°45' W 000°16'0 0.0
2015-May-05 08:33N 53°45' W 000°16'0 0.0
2015-May-05 07:33N 53°45' W 000°16'0 0.0
2015-May-05 06:33N 53°45' W 000°16'0 0.0
2015-May-05 05:33N 53°45' W 000°16'0 0.0
2015-May-05 04:33N 53°45' W 000°16'0 0.0
2015-May-05 03:33N 53°45' W 000°16'0 0.0
2015-May-05 02:33N 53°45' W 000°16'0 0.0
2015-May-05 01:34N 53°45' W 000°16'0 0.0
2015-May-05 00:34N 53°45' W 000°16'0 0.0
2015-May-04 23:33N 53°45' W 000°16'0 0.0
2015-May-04 22:34N 53°45' W 000°16'0 0.0
2015-May-04 21:33N 53°45' W 000°16'1 0.8
2015-May-04 20:33N 53°44' W 000°17'1 0.6
2015-May-04 19:34N 53°44' W 000°16'1110.5
2015-May-04 18:33N 53°37' W 000°03'1110.9
2015-May-04 17:33N 53°33' E 000°14'1210.9
2015-May-04 16:27N 53°42' E 000°29'1212.0
2015-May-04 15:26N 53°49' E 000°46'37911.8
2015-May-03 07:19N 57°35' E 009°45'912.1
2015-May-03 06:33N 57°40' E 010°00'1212.1
2015-May-03 05:33N 57°45' E 010°21'1312.1
2015-May-03 04:30N 57°48' E 010°44'1112.1
2015-May-03 03:33N 57°44' E 011°04'1211.6
2015-May-03 02:33N 57°39' E 011°24'10 8.9
2015-May-03 01:29N 57°36' E 011°40'0 0.0
2015-May-03 00:31N 57°36' E 011°40'0 0.1
2015-May-02 23:31N 57°35' E 011°40'0 0.1
2015-May-02 22:28N 57°35' E 011°40'0 0.0
2015-May-02 21:31N 57°35' E 011°40'0 0.0
2015-May-02 20:31N 57°35' E 011°41'0 0.0
2015-May-02 19:28N 57°35' E 011°40'0 0.1
2015-May-02 18:33N 57°35' E 011°40'8 8.0
2015-May-02 17:33N 57°28' E 011°37'1211.9
2015-May-02 16:32N 57°16' E 011°40'1312.1
2015-May-02 15:30N 57°03' E 011°44'1111.6
2015-May-02 14:33N 56°53' E 011°51'1211.7
2015-May-02 13:32N 56°42' E 011°57'2311.7
2015-May-02 11:33N 56°21' E 012°16'1211.7
2015-May-02 10:33N 56°11' E 012°28'1110.8
2015-May-02 09:33N 56°03' E 012°40'1110.7
2015-May-02 08:33N 55°52' E 012°44'1111.1
2015-May-02 07:33N 55°41' E 012°41'1010.3
2015-May-02 06:33N 55°31' E 012°43'1111.5
2015-May-02 05:33N 55°20' E 012°40'1210.9
2015-May-02 04:29N 55°16' E 012°59'1211.7
2015-May-02 03:28N 55°15' E 013°20'1111.9
2015-May-02 02:33N 55°14' E 013°39'1212.3
2015-May-02 01:33N 55°14' E 014°01'1211.0
2015-May-02 00:26N 55°18' E 014°21'1412.1
2015-May-01 23:19N 55°27' E 014°38'911.9
2015-May-01 22:33N 55°32' E 014°52'1211.8
2015-May-01 21:32N 55°38' E 015°11'  
Track history (hours):
 
Tides and Currents Weather Stations Pressure Air Temp Water Temp Dewpoint Dewpoint Depression Visibility Wind Speed Wind Dir Waves Ship Positions

Lammy

Last reported at 2015-May-05 18:33 UTC. Time now 2015-May-05 19:20 UTC.
Position N 53°45' W 000°17'.

Length 95 m; draft 5.1 m.

Type: Cargo ship. MMSI: 245391000.

Date/timePositionNaut miles runAvg speedWind from/ knotsBaromVisibWave heightAir tempDewpointWater temp
2015-May-05 18:33N 53°45' W 000°17'0 0.1
2015-May-05 17:33N 53°45' W 000°18'0 0.3
2015-May-05 16:34N 53°44' W 000°18'1 1.3
2015-May-05 15:34N 53°45' W 000°16'0 0.0
2015-May-05 14:33N 53°45' W 000°16'0 0.0
2015-May-05 13:33N 53°45' W 000°16'0 0.0
2015-May-05 12:33N 53°45' W 000°16'0 0.0
2015-May-05 11:33N 53°45' W 000°16'0 0.0
2015-May-05 10:33N 53°45' W 000°16'0 0.0
2015-May-05 09:33N 53°45' W 000°16'0 0.0
2015-May-05 08:33N 53°45' W 000°16'0 0.0
2015-May-05 07:33N 53°45' W 000°16'0 0.0
2015-May-05 06:33N 53°45' W 000°16'0 0.0
2015-May-05 05:33N 53°45' W 000°16'0 0.0
2015-May-05 04:33N 53°45' W 000°16'0 0.0
2015-May-05 03:33N 53°45' W 000°16'0 0.0
2015-May-05 02:33N 53°45' W 000°16'0 0.0
2015-May-05 01:34N 53°45' W 000°16'0 0.0
2015-May-05 00:34N 53°45' W 000°16'0 0.0
2015-May-04 23:33N 53°45' W 000°16'0 0.0
2015-May-04 22:34N 53°45' W 000°16'0 0.0
2015-May-04 21:33N 53°45' W 000°16'1 0.8
2015-May-04 20:33N 53°44' W 000°17'1 0.6
2015-May-04 19:34N 53°44' W 000°16'1110.5
2015-May-04 18:33N 53°37' W 000°03'1110.9
2015-May-04 17:33N 53°33' E 000°14'1210.9
2015-May-04 16:27N 53°42' E 000°29'1212.0
2015-May-04 15:26N 53°49' E 000°46'37911.8
2015-May-03 07:19N 57°35' E 009°45'912.1
2015-May-03 06:33N 57°40' E 010°00'1212.1
2015-May-03 05:33N 57°45' E 010°21'1312.1
2015-May-03 04:30N 57°48' E 010°44'1112.1
2015-May-03 03:33N 57°44' E 011°04'1211.6
2015-May-03 02:33N 57°39' E 011°24'10 8.9
2015-May-03 01:29N 57°36' E 011°40'0 0.0
2015-May-03 00:31N 57°36' E 011°40'0 0.1
2015-May-02 23:31N 57°35' E 011°40'0 0.1
2015-May-02 22:28N 57°35' E 011°40'0 0.0
2015-May-02 21:31N 57°35' E 011°40'0 0.0
2015-May-02 20:31N 57°35' E 011°41'0 0.0
2015-May-02 19:28N 57°35' E 011°40'0 0.1
2015-May-02 18:33N 57°35' E 011°40'8 8.0
2015-May-02 17:33N 57°28' E 011°37'1211.9
2015-May-02 16:32N 57°16' E 011°40'1312.1
2015-May-02 15:30N 57°03' E 011°44'1111.6
2015-May-02 14:33N 56°53' E 011°51'1211.7
2015-May-02 13:32N 56°42' E 011°57'2311.7
2015-May-02 11:33N 56°21' E 012°16'1211.7
2015-May-02 10:33N 56°11' E 012°28'1110.8
2015-May-02 09:33N 56°03' E 012°40'1110.7
2015-May-02 08:33N 55°52' E 012°44'1111.1
2015-May-02 07:33N 55°41' E 012°41'1010.3
2015-May-02 06:33N 55°31' E 012°43'1111.5
2015-May-02 05:33N 55°20' E 012°40'1210.9
2015-May-02 04:29N 55°16' E 012°59'1211.7
2015-May-02 03:28N 55°15' E 013°20'1111.9
2015-May-02 02:33N 55°14' E 013°39'1212.3
2015-May-02 01:33N 55°14' E 014°01'1211.0
2015-May-02 00:26N 55°18' E 014°21'1412.1
2015-May-01 23:19N 55°27' E 014°38'911.9
2015-May-01 22:33N 55°32' E 014°52'1211.8
2015-May-01 21:32N 55°38' E 015°11'  

Dump ship's entire track history